Margate, Florida
Current Conditions -  °F | °C
As of 4:53 AM on Saturday 25 Oct 2014 (Local Time) from KFXE Reporting Station
Clear Clear  
Wind Chill: 69°   Ceiling: Unl
Heat Index: 69°   Visibility: 10mi
Dew Point: 63°   Wind: 6mph
Humidity: 81%   Direction: 330°NNW
Pressure: 29.86"   Gusts: NA
Location:  26.24°N, 80.2°W
Report Text: KFXE 250853Z 33005KT 10SM CLR 21/17 A2986 RMK AO2 SLP113 T02060172 55004
Loading
Personal Weather Stations






























Interactive Weather Map
Tropical Storm Tracking
New forecast layout! Learn more

10-Day Weather Forecast

Advertisements
Track Severe Weather on mobile